sensor_id;sensor_type;location;lat;lon;timestamp;temperature;humidity
20231;DHT22;10274;49.022;9.338;2023-11-21T00:01:16;8.40;1.00
20231;DHT22;10274;49.022;9.338;2023-11-21T00:03:44;8.40;1.00
20231;DHT22;10274;49.022;9.338;2023-11-21T00:06:11;8.40;1.00
20231;DHT22;10274;49.022;9.338;2023-11-21T00:08:38;8.50;1.00
20231;DHT22;10274;49.022;9.338;2023-11-21T00:11:05;8.50;1.00
20231;DHT22;10274;49.022;9.338;2023-11-21T00:13:31;8.50;1.00
20231;DHT22;10274;49.022;9.338;2023-11-21T00:15:58;8.50;1.00
20231;DHT22;10274;49.022;9.338;2023-11-21T00:18:25;8.50;1.00
20231;DHT22;10274;49.022;9.338;2023-11-21T00:20:53;8.50;1.00
20231;DHT22;10274;49.022;9.338;2023-11-21T00:23:20;8.60;1.00
20231;DHT22;10274;49.022;9.338;2023-11-21T00:25:46;8.70;1.00
20231;DHT22;10274;49.022;9.338;2023-11-21T00:28:13;8.70;1.00
20231;DHT22;10274;49.022;9.338;2023-11-21T00:30:40;8.70;1.00
20231;DHT22;10274;49.022;9.338;2023-11-21T00:33:07;8.60;1.00
20231;DHT22;10274;49.022;9.338;2023-11-21T00:35:34;8.60;1.00
20231;DHT22;10274;49.022;9.338;2023-11-21T00:38:02;8.60;1.00
20231;DHT22;10274;49.022;9.338;2023-11-21T00:40:28;8.60;1.00
20231;DHT22;10274;49.022;9.338;2023-11-21T00:42:56;8.60;1.00
20231;DHT22;10274;49.022;9.338;2023-11-21T00:45:23;8.70;1.00
20231;DHT22;10274;49.022;9.338;2023-11-21T00:47:49;8.60;1.00
20231;DHT22;10274;49.022;9.338;2023-11-21T00:50:16;8.60;1.00
20231;DHT22;10274;49.022;9.338;2023-11-21T00:52:42;8.50;1.00
20231;DHT22;10274;49.022;9.338;2023-11-21T00:55:11;8.50;1.00
20231;DHT22;10274;49.022;9.338;2023-11-21T00:57:37;8.40;1.00
20231;DHT22;10274;49.022;9.338;2023-11-21T01:00:05;8.40;1.00
20231;DHT22;10274;49.022;9.338;2023-11-21T01:02:34;8.30;1.00
20231;DHT22;10274;49.022;9.338;2023-11-21T01:05:02;8.30;1.00
20231;DHT22;10274;49.022;9.338;2023-11-21T01:07:29;8.20;1.00
20231;DHT22;10274;49.022;9.338;2023-11-21T01:09:55;8.20;1.00
20231;DHT22;10274;49.022;9.338;2023-11-21T01:12:23;8.30;1.00
20231;DHT22;10274;49.022;9.338;2023-11-21T01:14:50;8.30;1.00
20231;DHT22;10274;49.022;9.338;2023-11-21T01:17:17;8.30;1.00
20231;DHT22;10274;49.022;9.338;2023-11-21T01:19:44;8.40;1.00
20231;DHT22;10274;49.022;9.338;2023-11-21T01:22:10;8.40;1.00
20231;DHT22;10274;49.022;9.338;2023-11-21T01:24:37;8.40;1.00
20231;DHT22;10274;49.022;9.338;2023-11-21T01:27:04;8.40;1.00
20231;DHT22;10274;49.022;9.338;2023-11-21T01:29:32;8.40;1.00
20231;DHT22;10274;49.022;9.338;2023-11-21T01:31:59;8.40;1.00
20231;DHT22;10274;49.022;9.338;2023-11-21T01:34:27;8.40;1.00
20231;DHT22;10274;49.022;9.338;2023-11-21T01:36:53;8.40;1.00
20231;DHT22;10274;49.022;9.338;2023-11-21T01:39:20;8.50;1.00
20231;DHT22;10274;49.022;9.338;2023-11-21T01:41:49;8.60;1.00
20231;DHT22;10274;49.022;9.338;2023-11-21T01:44:16;8.50;1.00
20231;DHT22;10274;49.022;9.338;2023-11-21T01:46:46;8.40;1.00
20231;DHT22;10274;49.022;9.338;2023-11-21T01:49:13;8.50;1.00
20231;DHT22;10274;49.022;9.338;2023-11-21T01:51:41;8.40;1.00
20231;DHT22;10274;49.022;9.338;2023-11-21T01:54:09;8.50;1.00
20231;DHT22;10274;49.022;9.338;2023-11-21T01:56:37;8.60;1.00
20231;DHT22;10274;49.022;9.338;2023-11-21T01:59:04;8.50;1.00
20231;DHT22;10274;49.022;9.338;2023-11-21T02:01:32;8.50;1.00
20231;DHT22;10274;49.022;9.338;2023-11-21T02:04:00;8.50;1.00
20231;DHT22;10274;49.022;9.338;2023-11-21T02:06:27;8.50;1.00
20231;DHT22;10274;49.022;9.338;2023-11-21T02:08:56;8.50;1.00
20231;DHT22;10274;49.022;9.338;2023-11-21T02:11:23;8.60;1.00
20231;DHT22;10274;49.022;9.338;2023-11-21T02:13:49;8.50;1.00
20231;DHT22;10274;49.022;9.338;2023-11-21T02:16:19;8.50;1.00
20231;DHT22;10274;49.022;9.338;2023-11-21T02:18:46;8.50;1.00
20231;DHT22;10274;49.022;9.338;2023-11-21T02:21:15;8.50;1.00
20231;DHT22;10274;49.022;9.338;2023-11-21T02:23:43;8.50;1.00
20231;DHT22;10274;49.022;9.338;2023-11-21T02:26:12;8.50;1.00
20231;DHT22;10274;49.022;9.338;2023-11-21T02:28:39;8.50;1.00
20231;DHT22;10274;49.022;9.338;2023-11-21T02:31:06;8.50;1.00
20231;DHT22;10274;49.022;9.338;2023-11-21T02:33:33;8.60;1.00
20231;DHT22;10274;49.022;9.338;2023-11-21T02:36:00;8.60;1.00
20231;DHT22;10274;49.022;9.338;2023-11-21T02:38:26;8.50;1.00
20231;DHT22;10274;49.022;9.338;2023-11-21T02:40:55;8.50;1.00
20231;DHT22;10274;49.022;9.338;2023-11-21T02:43:22;8.50;1.00
20231;DHT22;10274;49.022;9.338;2023-11-21T02:45:49;8.50;1.00
20231;DHT22;10274;49.022;9.338;2023-11-21T02:48:15;8.50;1.00
20231;DHT22;10274;49.022;9.338;2023-11-21T02:50:42;8.50;1.00
20231;DHT22;10274;49.022;9.338;2023-11-21T02:53:09;8.50;1.00
20231;DHT22;10274;49.022;9.338;2023-11-21T02:55:36;8.50;1.00
20231;DHT22;10274;49.022;9.338;2023-11-21T02:58:04;8.50;1.00
20231;DHT22;10274;49.022;9.338;2023-11-21T03:00:31;8.50;1.00
20231;DHT22;10274;49.022;9.338;2023-11-21T03:02:58;8.50;1.00
20231;DHT22;10274;49.022;9.338;2023-11-21T03:05:26;8.50;1.00
20231;DHT22;10274;49.022;9.338;2023-11-21T03:07:54;8.60;1.00
20231;DHT22;10274;49.022;9.338;2023-11-21T03:10:21;8.50;1.00
20231;DHT22;10274;49.022;9.338;2023-11-21T03:12:48;8.50;1.00
20231;DHT22;10274;49.022;9.338;2023-11-21T03:15:16;8.50;1.00
20231;DHT22;10274;49.022;9.338;2023-11-21T03:17:43;8.50;1.00
20231;DHT22;10274;49.022;9.338;2023-11-21T03:20:10;8.50;1.00
20231;DHT22;10274;49.022;9.338;2023-11-21T03:22:39;8.60;1.00
20231;DHT22;10274;49.022;9.338;2023-11-21T03:25:06;8.60;1.00
20231;DHT22;10274;49.022;9.338;2023-11-21T03:27:36;8.50;1.00
20231;DHT22;10274;49.022;9.338;2023-11-21T03:30:02;8.50;1.00
20231;DHT22;10274;49.022;9.338;2023-11-21T03:32:33;8.50;1.00
20231;DHT22;10274;49.022;9.338;2023-11-21T03:35:01;8.60;1.00
20231;DHT22;10274;49.022;9.338;2023-11-21T03:37:28;8.60;1.00
20231;DHT22;10274;49.022;9.338;2023-11-21T03:39:55;8.60;1.00
20231;DHT22;10274;49.022;9.338;2023-11-21T03:42:21;8.60;1.00
20231;DHT22;10274;49.022;9.338;2023-11-21T03:44:48;8.60;1.00
20231;DHT22;10274;49.022;9.338;2023-11-21T03:47:15;8.70;1.00
20231;DHT22;10274;49.022;9.338;2023-11-21T03:49:43;8.70;1.00
20231;DHT22;10274;49.022;9.338;2023-11-21T03:52:10;8.70;1.00
20231;DHT22;10274;49.022;9.338;2023-11-21T03:54:37;8.70;1.00
20231;DHT22;10274;49.022;9.338;2023-11-21T03:57:04;8.60;1.00
20231;DHT22;10274;49.022;9.338;2023-11-21T03:59:31;8.60;1.00
20231;DHT22;10274;49.022;9.338;2023-11-21T04:01:57;8.60;1.00
20231;DHT22;10274;49.022;9.338;2023-11-21T04:04:24;8.60;1.00
20231;DHT22;10274;49.022;9.338;2023-11-21T04:06:52;8.60;1.00
20231;DHT22;10274;49.022;9.338;2023-11-21T04:09:19;8.60;1.00
20231;DHT22;10274;49.022;9.338;2023-11-21T04:11:46;8.60;1.00
20231;DHT22;10274;49.022;9.338;2023-11-21T04:14:13;8.60;1.00
20231;DHT22;10274;49.022;9.338;2023-11-21T04:16:40;8.60;1.00
20231;DHT22;10274;49.022;9.338;2023-11-21T04:19:07;8.60;1.00
20231;DHT22;10274;49.022;9.338;2023-11-21T04:21:34;8.60;1.00
20231;DHT22;10274;49.022;9.338;2023-11-21T04:24:03;8.60;1.00
20231;DHT22;10274;49.022;9.338;2023-11-21T04:26:29;8.60;1.00
20231;DHT22;10274;49.022;9.338;2023-11-21T04:28:56;8.60;1.00
20231;DHT22;10274;49.022;9.338;2023-11-21T04:31:23;8.60;1.00
20231;DHT22;10274;49.022;9.338;2023-11-21T04:33:49;8.60;1.00
20231;DHT22;10274;49.022;9.338;2023-11-21T04:36:16;8.60;1.00
20231;DHT22;10274;49.022;9.338;2023-11-21T04:38:43;8.70;1.00
20231;DHT22;10274;49.022;9.338;2023-11-21T04:41:11;8.60;1.00
20231;DHT22;10274;49.022;9.338;2023-11-21T04:43:39;8.70;1.00
20231;DHT22;10274;49.022;9.338;2023-11-21T04:46:06;8.60;1.00
20231;DHT22;10274;49.022;9.338;2023-11-21T04:48:32;8.60;1.00
20231;DHT22;10274;49.022;9.338;2023-11-21T04:50:59;8.60;1.00
20231;DHT22;10274;49.022;9.338;2023-11-21T04:53:26;8.60;1.00
20231;DHT22;10274;49.022;9.338;2023-11-21T04:55:52;8.50;1.00
20231;DHT22;10274;49.022;9.338;2023-11-21T04:58:20;8.50;1.00
20231;DHT22;10274;49.022;9.338;2023-11-21T05:00:47;8.40;1.00
20231;DHT22;10274;49.022;9.338;2023-11-21T05:03:13;8.50;1.00
20231;DHT22;10274;49.022;9.338;2023-11-21T05:05:40;8.50;1.00
20231;DHT22;10274;49.022;9.338;2023-11-21T05:08:06;8.50;1.00
20231;DHT22;10274;49.022;9.338;2023-11-21T05:10:33;8.50;1.00
20231;DHT22;10274;49.022;9.338;2023-11-21T05:13:03;8.50;1.00
20231;DHT22;10274;49.022;9.338;2023-11-21T05:15:31;8.50;1.00
20231;DHT22;10274;49.022;9.338;2023-11-21T05:17:58;8.50;1.00
20231;DHT22;10274;49.022;9.338;2023-11-21T05:20:25;8.60;1.00
20231;DHT22;10274;49.022;9.338;2023-11-21T05:22:52;8.60;1.00
20231;DHT22;10274;49.022;9.338;2023-11-21T05:25:19;8.60;1.00
20231;DHT22;10274;49.022;9.338;2023-11-21T05:27:45;8.60;1.00
20231;DHT22;10274;49.022;9.338;2023-11-21T05:30:13;8.60;1.00
20231;DHT22;10274;49.022;9.338;2023-11-21T05:32:41;8.50;1.00
20231;DHT22;10274;49.022;9.338;2023-11-21T05:35:09;8.50;1.00
20231;DHT22;10274;49.022;9.338;2023-11-21T05:37:39;8.50;1.00
20231;DHT22;10274;49.022;9.338;2023-11-21T05:40:07;8.50;1.00
20231;DHT22;10274;49.022;9.338;2023-11-21T05:42:33;8.50;1.00
20231;DHT22;10274;49.022;9.338;2023-11-21T05:45:00;8.50;1.00
20231;DHT22;10274;49.022;9.338;2023-11-21T05:47:36;8.50;1.00
20231;DHT22;10274;49.022;9.338;2023-11-21T05:50:06;8.50;1.00
20231;DHT22;10274;49.022;9.338;2023-11-21T05:52:36;8.50;1.00
20231;DHT22;10274;49.022;9.338;2023-11-21T05:55:04;8.50;1.00
20231;DHT22;10274;49.022;9.338;2023-11-21T05:57:32;8.60;1.00
20231;DHT22;10274;49.022;9.338;2023-11-21T05:59:59;8.50;1.00
20231;DHT22;10274;49.022;9.338;2023-11-21T06:02:28;8.40;1.00
20231;DHT22;10274;49.022;9.338;2023-11-21T06:04:55;8.40;1.00
20231;DHT22;10274;49.022;9.338;2023-11-21T06:07:23;8.40;1.00
20231;DHT22;10274;49.022;9.338;2023-11-21T06:09:50;8.40;1.00
20231;DHT22;10274;49.022;9.338;2023-11-21T06:12:17;8.40;1.00
20231;DHT22;10274;49.022;9.338;2023-11-21T06:14:45;8.40;1.00
20231;DHT22;10274;49.022;9.338;2023-11-21T06:17:13;8.40;1.00
20231;DHT22;10274;49.022;9.338;2023-11-21T06:19:40;8.40;1.00
20231;DHT22;10274;49.022;9.338;2023-11-21T06:22:07;8.40;1.00
20231;DHT22;10274;49.022;9.338;2023-11-21T06:27:05;8.40;1.00
20231;DHT22;10274;49.022;9.338;2023-11-21T06:29:31;8.40;1.00
20231;DHT22;10274;49.022;9.338;2023-11-21T06:31:58;8.40;1.00
20231;DHT22;10274;49.022;9.338;2023-11-21T06:34:25;8.40;1.00
20231;DHT22;10274;49.022;9.338;2023-11-21T06:36:53;8.40;1.00
20231;DHT22;10274;49.022;9.338;2023-11-21T06:39:19;8.40;1.00
20231;DHT22;10274;49.022;9.338;2023-11-21T06:41:48;8.40;1.00
20231;DHT22;10274;49.022;9.338;2023-11-21T06:44:16;8.40;1.00
20231;DHT22;10274;49.022;9.338;2023-11-21T06:46:42;8.40;1.00
20231;DHT22;10274;49.022;9.338;2023-11-21T06:49:10;8.40;1.00
20231;DHT22;10274;49.022;9.338;2023-11-21T06:51:37;8.40;1.00
20231;DHT22;10274;49.022;9.338;2023-11-21T06:54:04;8.40;1.00
20231;DHT22;10274;49.022;9.338;2023-11-21T06:56:32;8.40;1.00
20231;DHT22;10274;49.022;9.338;2023-11-21T06:58:58;8.40;1.00
20231;DHT22;10274;49.022;9.338;2023-11-21T07:01:26;8.40;1.00
20231;DHT22;10274;49.022;9.338;2023-11-21T07:03:53;8.40;1.00
20231;DHT22;10274;49.022;9.338;2023-11-21T07:06:20;8.40;1.00
20231;DHT22;10274;49.022;9.338;2023-11-21T07:08:47;8.40;1.00
20231;DHT22;10274;49.022;9.338;2023-11-21T07:11:13;8.40;1.00
20231;DHT22;10274;49.022;9.338;2023-11-21T07:13:40;8.40;1.00
20231;DHT22;10274;49.022;9.338;2023-11-21T07:16:07;8.40;1.00
20231;DHT22;10274;49.022;9.338;2023-11-21T07:18:35;8.40;1.00
20231;DHT22;10274;49.022;9.338;2023-11-21T07:21:03;8.40;1.00
20231;DHT22;10274;49.022;9.338;2023-11-21T07:23:31;8.50;1.00
20231;DHT22;10274;49.022;9.338;2023-11-21T07:25:58;8.40;1.00
20231;DHT22;10274;49.022;9.338;2023-11-21T07:28:24;8.40;1.00
20231;DHT22;10274;49.022;9.338;2023-11-21T07:30:51;8.50;1.00
20231;DHT22;10274;49.022;9.338;2023-11-21T07:33:18;8.50;1.00
20231;DHT22;10274;49.022;9.338;2023-11-21T07:35:47;8.50;1.00
20231;DHT22;10274;49.022;9.338;2023-11-21T07:38:13;8.50;1.00
20231;DHT22;10274;49.022;9.338;2023-11-21T07:40:40;8.60;1.00
20231;DHT22;10274;49.022;9.338;2023-11-21T07:43:07;8.60;1.00
20231;DHT22;10274;49.022;9.338;2023-11-21T07:45:34;8.70;1.00
20231;DHT22;10274;49.022;9.338;2023-11-21T07:48:01;8.70;1.00
20231;DHT22;10274;49.022;9.338;2023-11-21T07:50:28;8.70;1.00
20231;DHT22;10274;49.022;9.338;2023-11-21T07:52:57;8.70;1.00
20231;DHT22;10274;49.022;9.338;2023-11-21T07:55:24;8.70;1.00
20231;DHT22;10274;49.022;9.338;2023-11-21T07:57:52;8.80;1.00
20231;DHT22;10274;49.022;9.338;2023-11-21T08:00:19;8.80;1.00
20231;DHT22;10274;49.022;9.338;2023-11-21T08:02:46;8.80;1.00
20231;DHT22;10274;49.022;9.338;2023-11-21T08:05:13;8.90;1.00
20231;DHT22;10274;49.022;9.338;2023-11-21T08:07:40;8.90;1.00
20231;DHT22;10274;49.022;9.338;2023-11-21T08:10:09;9.00;1.00
20231;DHT22;10274;49.022;9.338;2023-11-21T08:12:36;9.00;1.00
20231;DHT22;10274;49.022;9.338;2023-11-21T08:15:05;9.00;1.00
20231;DHT22;10274;49.022;9.338;2023-11-21T08:17:31;9.10;1.00
20231;DHT22;10274;49.022;9.338;2023-11-21T08:19:58;9.10;1.00
20231;DHT22;10274;49.022;9.338;2023-11-21T08:22:25;9.00;1.00
20231;DHT22;10274;49.022;9.338;2023-11-21T08:24:51;9.00;1.00
20231;DHT22;10274;49.022;9.338;2023-11-21T08:27:21;9.00;1.00
20231;DHT22;10274;49.022;9.338;2023-11-21T08:29:48;9.00;1.00
20231;DHT22;10274;49.022;9.338;2023-11-21T08:32:16;9.10;1.00
20231;DHT22;10274;49.022;9.338;2023-11-21T08:34:42;9.10;1.00
20231;DHT22;10274;49.022;9.338;2023-11-21T08:37:10;9.20;1.00
20231;DHT22;10274;49.022;9.338;2023-11-21T08:39:37;9.20;1.00
20231;DHT22;10274;49.022;9.338;2023-11-21T08:42:04;9.40;1.00
20231;DHT22;10274;49.022;9.338;2023-11-21T08:44:32;9.50;1.00
20231;DHT22;10274;49.022;9.338;2023-11-21T08:46:59;9.90;1.00
20231;DHT22;10274;49.022;9.338;2023-11-21T08:49:25;9.80;1.00
20231;DHT22;10274;49.022;9.338;2023-11-21T08:51:53;9.60;1.00
20231;DHT22;10274;49.022;9.338;2023-11-21T08:54:21;9.60;1.00
20231;DHT22;10274;49.022;9.338;2023-11-21T08:56:47;9.60;1.00
20231;DHT22;10274;49.022;9.338;2023-11-21T08:59:15;9.60;1.00
20231;DHT22;10274;49.022;9.338;2023-11-21T09:01:43;9.60;1.00
20231;DHT22;10274;49.022;9.338;2023-11-21T09:04:10;9.70;1.00
20231;DHT22;10274;49.022;9.338;2023-11-21T09:06:36;9.70;1.00
20231;DHT22;10274;49.022;9.338;2023-11-21T09:09:03;9.60;1.00
20231;DHT22;10274;49.022;9.338;2023-11-21T09:11:31;9.40;1.00
20231;DHT22;10274;49.022;9.338;2023-11-21T09:13:59;9.50;1.00
20231;DHT22;10274;49.022;9.338;2023-11-21T09:16:26;9.50;1.00
20231;DHT22;10274;49.022;9.338;2023-11-21T09:18:54;9.50;1.00
20231;DHT22;10274;49.022;9.338;2023-11-21T09:21:21;9.50;1.00
20231;DHT22;10274;49.022;9.338;2023-11-21T09:23:49;9.70;1.00
20231;DHT22;10274;49.022;9.338;2023-11-21T09:26:15;9.60;1.00
20231;DHT22;10274;49.022;9.338;2023-11-21T09:28:44;9.80;1.00
20231;DHT22;10274;49.022;9.338;2023-11-21T09:31:12;9.70;1.00
20231;DHT22;10274;49.022;9.338;2023-11-21T09:33:41;9.70;1.00
20231;DHT22;10274;49.022;9.338;2023-11-21T09:36:12;9.60;1.00
20231;DHT22;10274;49.022;9.338;2023-11-21T09:38:40;9.50;1.00
20231;DHT22;10274;49.022;9.338;2023-11-21T09:41:20;9.50;1.00
20231;DHT22;10274;49.022;9.338;2023-11-21T09:43:49;9.50;1.00
20231;DHT22;10274;49.022;9.338;2023-11-21T09:46:20;9.70;1.00
20231;DHT22;10274;49.022;9.338;2023-11-21T09:48:50;9.70;1.00
20231;DHT22;10274;49.022;9.338;2023-11-21T09:51:19;9.80;1.00
20231;DHT22;10274;49.022;9.338;2023-11-21T09:53:50;9.60;1.00
20231;DHT22;10274;49.022;9.338;2023-11-21T09:56:18;9.70;1.00
20231;DHT22;10274;49.022;9.338;2023-11-21T09:58:51;9.70;1.00
20231;DHT22;10274;49.022;9.338;2023-11-21T10:01:18;9.60;1.00
20231;DHT22;10274;49.022;9.338;2023-11-21T10:03:45;9.70;1.00
20231;DHT22;10274;49.022;9.338;2023-11-21T10:06:13;9.70;1.00
20231;DHT22;10274;49.022;9.338;2023-11-21T10:08:42;9.70;1.00
20231;DHT22;10274;49.022;9.338;2023-11-21T10:11:11;9.80;1.00
20231;DHT22;10274;49.022;9.338;2023-11-21T10:13:40;9.90;1.00
20231;DHT22;10274;49.022;9.338;2023-11-21T10:16:07;10.10;1.00
20231;DHT22;10274;49.022;9.338;2023-11-21T10:18:37;10.30;1.00
20231;DHT22;10274;49.022;9.338;2023-11-21T10:21:06;10.40;1.00
20231;DHT22;10274;49.022;9.338;2023-11-21T10:23:32;10.30;1.00
20231;DHT22;10274;49.022;9.338;2023-11-21T10:26:01;10.30;1.00
20231;DHT22;10274;49.022;9.338;2023-11-21T10:28:28;10.00;1.00
20231;DHT22;10274;49.022;9.338;2023-11-21T10:30:56;9.90;1.00
20231;DHT22;10274;49.022;9.338;2023-11-21T10:33:27;9.90;1.00
20231;DHT22;10274;49.022;9.338;2023-11-21T10:35:54;10.00;1.00
20231;DHT22;10274;49.022;9.338;2023-11-21T10:38:21;9.80;1.00
20231;DHT22;10274;49.022;9.338;2023-11-21T10:40:49;9.60;1.00
20231;DHT22;10274;49.022;9.338;2023-11-21T10:43:18;9.60;1.00
20231;DHT22;10274;49.022;9.338;2023-11-21T10:45:44;9.80;1.00
20231;DHT22;10274;49.022;9.338;2023-11-21T10:48:13;9.70;1.00
20231;DHT22;10274;49.022;9.338;2023-11-21T10:50:43;9.80;1.00
20231;DHT22;10274;49.022;9.338;2023-11-21T10:53:10;9.70;1.00
20231;DHT22;10274;49.022;9.338;2023-11-21T10:55:39;9.50;1.00
20231;DHT22;10274;49.022;9.338;2023-11-21T10:58:06;9.50;1.00
20231;DHT22;10274;49.022;9.338;2023-11-21T11:00:34;9.50;1.00
20231;DHT22;10274;49.022;9.338;2023-11-21T11:03:01;9.60;1.00
20231;DHT22;10274;49.022;9.338;2023-11-21T11:05:29;9.60;1.00
20231;DHT22;10274;49.022;9.338;2023-11-21T11:07:59;9.90;1.00
20231;DHT22;10274;49.022;9.338;2023-11-21T11:10:27;9.70;1.00
20231;DHT22;10274;49.022;9.338;2023-11-21T11:12:55;9.80;1.00
20231;DHT22;10274;49.022;9.338;2023-11-21T11:15:23;9.90;1.00
20231;DHT22;10274;49.022;9.338;2023-11-21T11:17:52;9.90;1.00
20231;DHT22;10274;49.022;9.338;2023-11-21T11:20:23;9.70;1.00
20231;DHT22;10274;49.022;9.338;2023-11-21T11:22:58;9.90;1.00
20231;DHT22;10274;49.022;9.338;2023-11-21T11:25:38;9.80;1.00
20231;DHT22;10274;49.022;9.338;2023-11-21T11:28:15;9.90;1.00
20231;DHT22;10274;49.022;9.338;2023-11-21T11:30:52;10.10;1.00
20231;DHT22;10274;49.022;9.338;2023-11-21T11:33:27;10.10;1.00
20231;DHT22;10274;49.022;9.338;2023-11-21T11:36:00;10.30;1.00
20231;DHT22;10274;49.022;9.338;2023-11-21T11:38:31;10.50;1.00
20231;DHT22;10274;49.022;9.338;2023-11-21T11:41:02;10.60;1.00
20231;DHT22;10274;49.022;9.338;2023-11-21T11:43:30;10.60;1.00
20231;DHT22;10274;49.022;9.338;2023-11-21T11:45:58;10.90;1.00
20231;DHT22;10274;49.022;9.338;2023-11-21T11:48:30;11.20;1.00
20231;DHT22;10274;49.022;9.338;2023-11-21T11:51:02;11.10;1.00
20231;DHT22;10274;49.022;9.338;2023-11-21T11:53:35;10.70;1.00
20231;DHT22;10274;49.022;9.338;2023-11-21T11:56:26;10.60;1.00
20231;DHT22;10274;49.022;9.338;2023-11-21T11:58:54;10.70;1.00
20231;DHT22;10274;49.022;9.338;2023-11-21T12:01:23;10.80;1.00
20231;DHT22;10274;49.022;9.338;2023-11-21T12:04:26;10.70;1.00
20231;DHT22;10274;49.022;9.338;2023-11-21T12:07:01;10.60;1.00
20231;DHT22;10274;49.022;9.338;2023-11-21T12:09:30;10.70;1.00
20231;DHT22;10274;49.022;9.338;2023-11-21T12:11:58;10.80;1.00
20231;DHT22;10274;49.022;9.338;2023-11-21T12:14:25;10.80;1.00
20231;DHT22;10274;49.022;9.338;2023-11-21T12:16:53;10.90;1.00
20231;DHT22;10274;49.022;9.338;2023-11-21T12:19:20;11.10;1.00
20231;DHT22;10274;49.022;9.338;2023-11-21T12:21:49;11.10;1.00
20231;DHT22;10274;49.022;9.338;2023-11-21T12:24:17;11.10;1.00
20231;DHT22;10274;49.022;9.338;2023-11-21T12:26:44;11.10;1.00
20231;DHT22;10274;49.022;9.338;2023-11-21T12:29:11;11.00;1.00
20231;DHT22;10274;49.022;9.338;2023-11-21T12:31:38;11.00;1.00
20231;DHT22;10274;49.022;9.338;2023-11-21T12:34:05;11.00;1.00
20231;DHT22;10274;49.022;9.338;2023-11-21T12:36:32;10.90;1.00
20231;DHT22;10274;49.022;9.338;2023-11-21T12:39:01;10.80;1.00
20231;DHT22;10274;49.022;9.338;2023-11-21T12:41:29;10.60;1.00
20231;DHT22;10274;49.022;9.338;2023-11-21T12:43:56;10.50;1.00
20231;DHT22;10274;49.022;9.338;2023-11-21T12:46:23;10.50;1.00
20231;DHT22;10274;49.022;9.338;2023-11-21T12:48:51;10.40;1.00
20231;DHT22;10274;49.022;9.338;2023-11-21T12:51:18;10.40;1.00
20231;DHT22;10274;49.022;9.338;2023-11-21T12:53:45;10.20;1.00
20231;DHT22;10274;49.022;9.338;2023-11-21T12:56:14;10.20;1.00
20231;DHT22;10274;49.022;9.338;2023-11-21T12:58:44;10.10;1.00
20231;DHT22;10274;49.022;9.338;2023-11-21T13:01:13;10.10;1.00
20231;DHT22;10274;49.022;9.338;2023-11-21T13:03:46;10.10;1.00
20231;DHT22;10274;49.022;9.338;2023-11-21T13:06:14;10.20;1.00
20231;DHT22;10274;49.022;9.338;2023-11-21T13:08:41;10.10;1.00
20231;DHT22;10274;49.022;9.338;2023-11-21T13:11:10;10.20;1.00
20231;DHT22;10274;49.022;9.338;2023-11-21T13:13:41;10.10;1.00
20231;DHT22;10274;49.022;9.338;2023-11-21T13:16:08;10.30;1.00
20231;DHT22;10274;49.022;9.338;2023-11-21T13:18:35;10.30;1.00
20231;DHT22;10274;49.022;9.338;2023-11-21T13:21:04;10.70;1.00
20231;DHT22;10274;49.022;9.338;2023-11-21T13:23:35;11.30;1.00
20231;DHT22;10274;49.022;9.338;2023-11-21T13:26:03;11.60;1.00
20231;DHT22;10274;49.022;9.338;2023-11-21T13:28:30;11.70;1.00
20231;DHT22;10274;49.022;9.338;2023-11-21T13:30:58;11.50;1.00
20231;DHT22;10274;49.022;9.338;2023-11-21T13:33:28;11.10;1.00
20231;DHT22;10274;49.022;9.338;2023-11-21T13:35:56;10.90;1.00
20231;DHT22;10274;49.022;9.338;2023-11-21T13:38:23;10.70;1.00
20231;DHT22;10274;49.022;9.338;2023-11-21T13:40:51;10.80;1.00
20231;DHT22;10274;49.022;9.338;2023-11-21T13:43:20;10.70;1.00
20231;DHT22;10274;49.022;9.338;2023-11-21T13:45:49;10.70;1.00
20231;DHT22;10274;49.022;9.338;2023-11-21T13:48:22;10.80;1.00
20231;DHT22;10274;49.022;9.338;2023-11-21T13:50:57;10.80;1.00
20231;DHT22;10274;49.022;9.338;2023-11-21T13:53:27;11.60;1.00
20231;DHT22;10274;49.022;9.338;2023-11-21T13:55:54;11.00;1.00
20231;DHT22;10274;49.022;9.338;2023-11-21T13:58:23;10.80;1.00
20231;DHT22;10274;49.022;9.338;2023-11-21T14:01:00;10.70;1.00
20231;DHT22;10274;49.022;9.338;2023-11-21T14:03:32;10.80;1.00
20231;DHT22;10274;49.022;9.338;2023-11-21T14:06:10;10.60;1.00
20231;DHT22;10274;49.022;9.338;2023-11-21T14:08:41;10.50;1.00
20231;DHT22;10274;49.022;9.338;2023-11-21T14:11:08;10.50;1.00
20231;DHT22;10274;49.022;9.338;2023-11-21T14:13:36;10.50;1.00
20231;DHT22;10274;49.022;9.338;2023-11-21T14:16:03;10.40;1.00
20231;DHT22;10274;49.022;9.338;2023-11-21T14:18:33;10.50;1.00
20231;DHT22;10274;49.022;9.338;2023-11-21T14:21:04;10.40;1.00
20231;DHT22;10274;49.022;9.338;2023-11-21T14:23:32;10.40;1.00
20231;DHT22;10274;49.022;9.338;2023-11-21T14:26:01;10.40;1.00
20231;DHT22;10274;49.022;9.338;2023-11-21T14:28:28;10.30;1.00
20231;DHT22;10274;49.022;9.338;2023-11-21T14:30:54;10.30;1.00
20231;DHT22;10274;49.022;9.338;2023-11-21T14:33:21;10.30;1.00
20231;DHT22;10274;49.022;9.338;2023-11-21T14:35:49;10.20;1.00
20231;DHT22;10274;49.022;9.338;2023-11-21T14:38:16;10.20;1.00
20231;DHT22;10274;49.022;9.338;2023-11-21T14:40:43;10.20;1.00
20231;DHT22;10274;49.022;9.338;2023-11-21T14:43:10;10.10;1.00
20231;DHT22;10274;49.022;9.338;2023-11-21T14:45:38;10.00;1.00
20231;DHT22;10274;49.022;9.338;2023-11-21T14:48:05;10.00;1.00
20231;DHT22;10274;49.022;9.338;2023-11-21T14:50:42;10.00;1.00
20231;DHT22;10274;49.022;9.338;2023-11-21T14:53:16;10.00;1.00
20231;DHT22;10274;49.022;9.338;2023-11-21T14:56:03;9.90;1.00
20231;DHT22;10274;49.022;9.338;2023-11-21T14:58:29;9.80;1.00
20231;DHT22;10274;49.022;9.338;2023-11-21T15:00:57;9.70;1.00
20231;DHT22;10274;49.022;9.338;2023-11-21T15:03:24;9.50;1.00
20231;DHT22;10274;49.022;9.338;2023-11-21T15:06:07;9.40;1.00
20231;DHT22;10274;49.022;9.338;2023-11-21T15:08:54;9.40;1.00
20231;DHT22;10274;49.022;9.338;2023-11-21T15:11:38;9.30;1.00
20231;DHT22;10274;49.022;9.338;2023-11-21T15:14:04;9.30;1.00
20231;DHT22;10274;49.022;9.338;2023-11-21T15:16:33;9.20;1.00
20231;DHT22;10274;49.022;9.338;2023-11-21T15:19:04;9.20;1.00
20231;DHT22;10274;49.022;9.338;2023-11-21T15:21:31;9.20;1.00
20231;DHT22;10274;49.022;9.338;2023-11-21T15:24:00;9.10;1.00
20231;DHT22;10274;49.022;9.338;2023-11-21T15:26:27;9.10;1.00
20231;DHT22;10274;49.022;9.338;2023-11-21T15:28:53;9.10;1.00
20231;DHT22;10274;49.022;9.338;2023-11-21T15:31:20;9.10;1.00
20231;DHT22;10274;49.022;9.338;2023-11-21T15:33:50;9.10;1.00
20231;DHT22;10274;49.022;9.338;2023-11-21T15:36:17;9.10;1.00
20231;DHT22;10274;49.022;9.338;2023-11-21T15:38:44;9.10;1.00
20231;DHT22;10274;49.022;9.338;2023-11-21T15:41:12;8.90;1.00
20231;DHT22;10274;49.022;9.338;2023-11-21T15:43:39;8.70;1.00
20231;DHT22;10274;49.022;9.338;2023-11-21T15:46:06;8.50;1.00
20231;DHT22;10274;49.022;9.338;2023-11-21T15:48:34;8.50;1.00
20231;DHT22;10274;49.022;9.338;2023-11-21T15:51:01;8.50;1.00
20231;DHT22;10274;49.022;9.338;2023-11-21T15:53:30;8.40;1.00
20231;DHT22;10274;49.022;9.338;2023-11-21T15:55:56;8.30;1.00
20231;DHT22;10274;49.022;9.338;2023-11-21T15:58:25;8.20;1.00
20231;DHT22;10274;49.022;9.338;2023-11-21T16:00:52;8.10;1.00
20231;DHT22;10274;49.022;9.338;2023-11-21T16:03:18;8.00;1.00
20231;DHT22;10274;49.022;9.338;2023-11-21T16:05:47;7.80;1.00